createdAt,value
2022-09-18T00:01:30.382Z,35.42
2022-09-18T00:04:16.152Z,27.95
2022-09-18T00:07:05.338Z,28.00
2022-09-18T00:09:47.769Z,27.00
2022-09-18T00:12:36.438Z,29.10
2022-09-18T00:15:18.783Z,33.08
2022-09-18T00:18:07.383Z,28.08
2022-09-18T00:20:57.349Z,35.47
2022-09-18T00:23:47.353Z,32.13
2022-09-18T00:26:37.519Z,29.88
2022-09-18T00:29:19.871Z,30.60
2022-09-18T00:32:08.463Z,32.30
2022-09-18T00:34:50.650Z,29.02
2022-09-18T00:37:40.090Z,31.70
2022-09-18T00:40:22.686Z,28.05
2022-09-18T00:43:11.548Z,34.75
2022-09-18T00:46:02.564Z,27.38
2022-09-18T00:49:11.342Z,33.83
2022-09-18T00:51:56.784Z,31.23
2022-09-18T00:54:52.437Z,29.67
2022-09-18T00:57:43.390Z,28.25
2022-09-18T01:00:32.388Z,28.85
2022-09-18T01:03:14.612Z,26.63
2022-09-18T01:06:06.330Z,34.05
2022-09-18T01:09:09.779Z,29.08
2022-09-18T01:12:12.482Z,34.70
2022-09-18T01:15:14.196Z,32.93
2022-09-18T01:18:23.414Z,33.65
2022-09-18T01:21:26.402Z,30.60
2022-09-18T01:24:42.370Z,32.50
2022-09-18T01:28:00.443Z,36.38
2022-09-18T01:30:52.867Z,28.23
2022-09-18T01:33:53.398Z,31.13
2022-09-18T01:36:47.368Z,35.92
2022-09-18T01:40:02.512Z,34.35
2022-09-18T01:42:47.728Z,28.65
2022-09-18T01:45:43.334Z,31.13
2022-09-18T01:48:51.569Z,33.92
2022-09-18T01:54:48.349Z,30.42
2022-09-18T01:57:57.354Z,30.08
2022-09-18T02:00:47.443Z,29.48
2022-09-18T02:03:38.647Z,34.25
2022-09-18T02:06:41.403Z,29.48
2022-09-18T02:09:23.748Z,25.70
2022-09-18T02:15:17.344Z,28.13
2022-09-18T02:18:16.478Z,28.92
2022-09-18T02:21:13.298Z,28.65
2022-09-18T02:24:15.359Z,25.17
2022-09-18T02:27:01.713Z,29.55
2022-09-18T02:29:53.324Z,27.38
2022-09-18T02:32:35.749Z,25.13
2022-09-18T02:35:24.656Z,33.33
2022-09-18T02:38:23.352Z,29.88
2022-09-18T02:41:25.435Z,28.92
2022-09-18T02:44:20.359Z,31.23
2022-09-18T02:47:37.452Z,29.33
2022-09-18T02:51:05.502Z,29.33
2022-09-18T02:54:14.524Z,31.90
2022-09-18T02:56:56.747Z,28.80
2022-09-18T02:59:49.398Z,28.70
2022-09-18T03:02:33.806Z,26.80
2022-09-18T03:05:24.293Z,28.80
2022-09-18T03:08:15.435Z,38.22
2022-09-18T03:10:58.890Z,27.75
2022-09-18T03:13:47.280Z,28.52
2022-09-18T03:16:36.498Z,28.90
2022-09-18T03:19:26.823Z,33.42
2022-09-18T03:22:23.629Z,33.60
2022-09-18T03:25:06.179Z,32.03
2022-09-18T03:27:57.524Z,31.98
2022-09-18T03:30:46.829Z,33.83
2022-09-18T03:33:36.379Z,28.77
2022-09-18T03:36:26.801Z,34.70
2022-09-18T03:39:10.375Z,27.75
2022-09-18T03:42:01.410Z,27.98
2022-09-18T03:44:44.779Z,30.63
2022-09-18T03:47:41.434Z,27.73
2022-09-18T03:50:23.744Z,34.55
2022-09-18T03:53:12.377Z,25.77
2022-09-18T03:56:22.942Z,30.73
2022-09-18T03:59:44.477Z,28.83
2022-09-18T04:02:54.494Z,24.27
2022-09-18T04:05:41.219Z,32.67
2022-09-18T04:08:48.385Z,23.17
2022-09-18T04:11:36.782Z,27.88
2022-09-18T04:14:29.828Z,33.55
2022-09-18T04:17:12.800Z,25.63
2022-09-18T04:20:02.474Z,27.17
2022-09-18T04:22:57.385Z,23.10
2022-09-18T04:25:46.377Z,26.55
2022-09-18T04:28:40.461Z,33.20
2022-09-18T04:31:25.442Z,32.22
2022-09-18T04:34:19.498Z,35.08
2022-09-18T04:37:14.390Z,30.17
2022-09-18T04:40:00.968Z,28.92
2022-09-18T04:42:51.464Z,28.48
2022-09-18T04:45:43.482Z,28.83
2022-09-18T04:48:27.840Z,44.90
2022-09-18T04:51:18.461Z,31.70
2022-09-18T04:54:07.509Z,27.48
2022-09-18T04:56:49.615Z,27.77
2022-09-18T04:59:39.158Z,31.40
2022-09-18T05:02:21.952Z,34.45
2022-09-18T05:05:11.484Z,32.47
2022-09-18T05:07:53.635Z,27.63
2022-09-18T05:10:45.204Z,33.10
2022-09-18T05:13:29.005Z,27.38
2022-09-18T05:16:22.591Z,34.17
2022-09-18T05:19:35.267Z,33.00
2022-09-18T05:22:30.493Z,37.13
2022-09-18T05:25:37.183Z,30.15
2022-09-18T05:28:28.452Z,34.38
2022-09-18T05:31:12.841Z,28.70
2022-09-18T05:34:04.293Z,28.48
2022-09-18T05:36:49.834Z,38.38
2022-09-18T05:39:39.392Z,30.77
2022-09-18T05:42:21.827Z,31.63
2022-09-18T05:45:13.475Z,32.28
2022-09-18T05:48:07.851Z,38.70
2022-09-18T05:50:58.495Z,34.13
2022-09-18T05:53:43.665Z,40.50
2022-09-18T05:56:39.280Z,40.58
2022-09-18T05:59:29.400Z,35.97
2022-09-18T06:02:12.529Z,33.35
2022-09-18T06:05:19.493Z,33.55
2022-09-18T06:08:09.848Z,38.08
2022-09-18T06:10:52.382Z,35.85
2022-09-18T06:13:38.594Z,33.45
2022-09-18T06:16:31.436Z,37.60
2022-09-18T06:19:15.890Z,32.25
2022-09-18T06:22:05.210Z,43.38
2022-09-18T06:24:53.795Z,42.10
2022-09-18T06:27:43.293Z,44.67
2022-09-18T06:30:40.294Z,37.38
2022-09-18T06:33:26.864Z,34.75
2022-09-18T06:36:22.403Z,34.80
2022-09-18T06:39:25.717Z,38.78
2022-09-18T06:42:17.389Z,41.78
2022-09-18T06:45:37.114Z,39.90
2022-09-18T06:48:31.437Z,37.03
2022-09-18T06:51:16.835Z,38.08
2022-09-18T06:54:26.403Z,45.70
2022-09-18T06:57:16.505Z,47.33
2022-09-18T07:00:01.590Z,48.97
2022-09-18T07:02:54.465Z,41.42
2022-09-18T07:05:46.082Z,55.55
2022-09-18T07:08:59.401Z,47.83
2022-09-18T07:12:21.792Z,41.80
2022-09-18T07:15:05.396Z,38.50
2022-09-18T07:18:18.888Z,34.45
2022-09-18T07:24:03.546Z,42.20
2022-09-18T07:26:53.816Z,42.03
2022-09-18T07:29:56.399Z,38.58
2022-09-18T07:32:44.818Z,40.00
2022-09-18T07:35:33.387Z,40.90
2022-09-18T07:38:17.328Z,34.33
2022-09-18T07:41:14.409Z,36.15
2022-09-18T07:44:05.959Z,41.40
2022-09-18T07:46:50.777Z,37.28
2022-09-18T07:49:44.654Z,38.90
2022-09-18T07:52:34.377Z,31.65
2022-09-18T07:55:25.372Z,33.58
2022-09-18T07:58:17.488Z,33.63
2022-09-18T08:01:14.745Z,33.78
2022-09-18T08:04:08.409Z,29.33
2022-09-18T08:07:13.889Z,31.55
2022-09-18T08:10:26.119Z,32.30
2022-09-18T08:13:21.811Z,31.88
2022-09-18T08:16:32.790Z,36.85
2022-09-18T08:19:48.492Z,32.22
2022-09-18T08:23:04.840Z,32.03
2022-09-18T08:25:59.339Z,33.80
2022-09-18T08:28:41.755Z,33.43
2022-09-18T08:31:30.541Z,32.25
2022-09-18T08:34:16.974Z,30.58
2022-09-18T08:37:05.480Z,33.73
2022-09-18T08:40:16.860Z,36.70
2022-09-18T08:43:26.393Z,40.25
2022-09-18T08:46:23.010Z,36.20
2022-09-18T08:49:31.302Z,33.78
2022-09-18T08:52:24.012Z,36.78
2022-09-18T08:55:46.391Z,39.15
2022-09-18T08:58:59.769Z,39.15
2022-09-18T09:02:12.201Z,30.77
2022-09-18T09:04:57.565Z,32.25
2022-09-18T09:08:11.678Z,40.17
2022-09-18T09:11:02.403Z,34.50
2022-09-18T09:14:17.826Z,39.20
2022-09-18T09:17:16.944Z,42.53
2022-09-18T09:20:36.095Z,34.00
2022-09-18T09:23:53.386Z,35.05
2022-09-18T09:27:12.602Z,30.38
2022-09-18T09:30:33.277Z,31.98
2022-09-18T09:33:41.659Z,32.78
2022-09-18T09:36:44.388Z,34.05
2022-09-18T09:39:33.903Z,40.47
2022-09-18T09:42:30.491Z,35.80
2022-09-18T09:45:52.470Z,34.00
2022-09-18T09:48:58.827Z,27.33
2022-09-18T09:52:09.153Z,30.73
2022-09-18T09:55:09.603Z,30.05
2022-09-18T09:58:11.363Z,25.73
2022-09-18T10:01:23.344Z,25.55
2022-09-18T10:04:43.738Z,31.48
2022-09-18T10:08:08.399Z,30.52
2022-09-18T10:11:09.872Z,26.13
2022-09-18T10:14:21.391Z,24.73
2022-09-18T10:17:05.779Z,31.73
2022-09-18T10:19:56.293Z,31.05
2022-09-18T10:22:49.495Z,30.92
2022-09-18T10:25:53.862Z,24.55
2022-09-18T10:28:44.481Z,25.33
2022-09-18T10:31:52.216Z,30.05
2022-09-18T10:35:02.398Z,35.80
2022-09-18T10:37:44.714Z,32.08
2022-09-18T10:41:00.290Z,31.90
2022-09-18T10:44:03.547Z,33.80
2022-09-18T10:47:01.264Z,33.30
2022-09-18T10:50:14.385Z,39.80
2022-09-18T10:53:22.503Z,34.00
2022-09-18T10:56:29.383Z,32.60
2022-09-18T10:59:38.572Z,36.65
2022-09-18T11:02:34.314Z,30.98
2022-09-18T11:05:25.417Z,35.75
2022-09-18T11:08:22.300Z,39.77
2022-09-18T11:11:13.359Z,32.20
2022-09-18T11:14:19.519Z,36.90
2022-09-18T11:17:27.238Z,30.75
2022-09-18T11:20:21.283Z,38.15
2022-09-18T11:23:31.881Z,43.28
2022-09-18T11:26:45.529Z,45.42
2022-09-18T11:29:50.469Z,33.97
2022-09-18T11:32:43.463Z,37.67
2022-09-18T11:35:28.723Z,41.75
2022-09-18T11:38:21.173Z,38.13
2022-09-18T11:44:03.491Z,42.60
2022-09-18T11:47:34.475Z,43.17
2022-09-18T11:50:27.512Z,44.08
2022-09-18T11:53:34.482Z,41.72
2022-09-18T11:56:40.407Z,40.58
2022-09-18T11:59:37.326Z,39.60
2022-09-18T12:02:36.424Z,43.78
2022-09-18T12:05:44.812Z,45.60
2022-09-18T12:08:52.911Z,39.40
2022-09-18T12:12:22.528Z,43.45
2022-09-18T12:15:32.582Z,48.53
2022-09-18T12:18:33.126Z,45.97
2022-09-18T12:21:26.437Z,60.80
2022-09-18T12:24:15.387Z,48.25
2022-09-18T12:27:13.529Z,49.45
2022-09-18T12:30:28.111Z,46.53
2022-09-18T12:33:34.108Z,46.28
2022-09-18T12:36:41.031Z,40.65
2022-09-18T12:39:56.445Z,39.13
2022-09-18T12:43:18.220Z,50.42
2022-09-18T12:46:33.830Z,42.63
2022-09-18T12:49:20.780Z,37.85
2022-09-18T12:53:00.593Z,45.60
2022-09-18T12:56:41.674Z,45.05
2022-09-18T12:59:51.566Z,41.45
2022-09-18T13:03:11.310Z,42.47
2022-09-18T13:06:12.644Z,39.08
2022-09-18T13:09:26.080Z,43.17
2022-09-18T13:12:27.387Z,44.80
2022-09-18T13:15:42.155Z,39.65
2022-09-18T13:18:52.790Z,36.97
2022-09-18T13:22:01.555Z,45.35
2022-09-18T13:24:46.371Z,42.88
2022-09-18T13:27:37.901Z,46.42
2022-09-18T13:30:38.736Z,42.95
2022-09-18T13:33:35.449Z,38.10
2022-09-18T13:36:38.979Z,42.78
2022-09-18T13:39:46.070Z,47.47
2022-09-18T13:42:52.243Z,48.72
2022-09-18T13:45:52.337Z,40.25
2022-09-18T13:49:01.311Z,38.58
2022-09-18T13:51:48.848Z,45.90
2022-09-18T13:54:37.457Z,48.80
2022-09-18T13:57:35.467Z,44.05
2022-09-18T14:00:29.398Z,45.78
2022-09-18T14:03:28.477Z,49.65
2022-09-18T14:06:39.941Z,46.45
2022-09-18T14:10:09.337Z,49.35
2022-09-18T14:13:44.356Z,39.05
2022-09-18T14:16:30.218Z,40.30
2022-09-18T14:19:43.458Z,40.08
2022-09-18T14:22:39.324Z,42.97
2022-09-18T14:25:56.376Z,43.58
2022-09-18T14:29:04.047Z,44.83
2022-09-18T14:32:12.886Z,48.03
2022-09-18T14:35:41.226Z,44.95
2022-09-18T14:38:34.074Z,37.85
2022-09-18T14:41:29.510Z,41.60
2022-09-18T14:44:21.946Z,42.70
2022-09-18T14:47:17.395Z,47.33
2022-09-18T14:50:09.361Z,41.75
2022-09-18T14:52:59.483Z,40.67
2022-09-18T14:55:49.884Z,42.42
2022-09-18T14:58:50.072Z,32.50
2022-09-18T15:01:39.350Z,40.85
2022-09-18T15:04:34.565Z,47.38
2022-09-18T15:07:29.775Z,45.20
2022-09-18T15:10:18.276Z,52.03
2022-09-18T15:13:02.952Z,43.47
2022-09-18T15:16:04.068Z,47.95
2022-09-18T15:18:54.554Z,40.80
2022-09-18T15:21:44.273Z,48.80
2022-09-18T15:24:27.687Z,47.42
2022-09-18T15:27:22.379Z,47.85
2022-09-18T15:30:21.541Z,52.22
2022-09-18T15:33:21.083Z,45.30
2022-09-18T15:36:12.396Z,51.35
2022-09-18T15:38:57.803Z,42.90
2022-09-18T15:41:53.478Z,53.15
2022-09-18T15:44:50.417Z,41.17
2022-09-18T15:47:45.458Z,52.72
2022-09-18T15:50:31.184Z,55.45
2022-09-18T15:53:29.512Z,51.47
2022-09-18T15:56:18.501Z,49.67
2022-09-18T15:59:11.509Z,51.28
2022-09-18T16:01:58.326Z,49.97
2022-09-18T16:04:49.395Z,52.55
2022-09-18T16:07:34.937Z,55.15
2022-09-18T16:10:50.415Z,44.88
2022-09-18T16:13:40.498Z,49.38
2022-09-18T16:16:33.513Z,55.53
2022-09-18T16:19:30.310Z,62.20
2022-09-18T16:22:18.866Z,53.03
2022-09-18T16:25:10.221Z,55.35
2022-09-18T16:27:58.631Z,47.17
2022-09-18T16:30:47.851Z,58.80
2022-09-18T16:33:48.509Z,52.88
2022-09-18T16:36:47.447Z,53.22
2022-09-18T16:39:32.843Z,55.22
2022-09-18T16:42:26.352Z,51.60
2022-09-18T16:45:08.829Z,44.85
2022-09-18T16:48:00.829Z,45.85
2022-09-18T16:50:42.981Z,49.88
2022-09-18T16:53:34.819Z,50.72
2022-09-18T16:56:20.812Z,52.45
2022-09-18T16:59:11.372Z,52.03
2022-09-18T17:02:05.131Z,51.38
2022-09-18T17:04:56.202Z,47.83
2022-09-18T17:07:39.381Z,51.92
2022-09-18T17:10:21.894Z,47.28
2022-09-18T17:13:12.987Z,58.50
2022-09-18T17:16:03.711Z,63.22
2022-09-18T17:18:51.363Z,55.42
2022-09-18T17:21:40.138Z,54.88
2022-09-18T17:24:23.405Z,52.40
2022-09-18T17:29:57.823Z,45.42
2022-09-18T17:32:40.211Z,51.28
2022-09-18T17:35:32.494Z,58.97
2022-09-18T17:38:17.129Z,54.25
2022-09-18T17:41:16.925Z,50.40
2022-09-18T17:44:05.819Z,45.17
2022-09-18T17:46:52.930Z,51.38
2022-09-18T17:49:35.243Z,60.03
2022-09-18T17:52:24.439Z,50.13
2022-09-18T17:55:07.305Z,58.50
2022-09-18T17:58:00.365Z,40.88
2022-09-18T18:00:45.599Z,50.33
2022-09-18T18:03:34.432Z,53.85
2022-09-18T18:06:24.935Z,52.47
2022-09-18T18:09:07.368Z,45.22
2022-09-18T18:11:51.286Z,44.17
2022-09-18T18:14:40.394Z,41.90
2022-09-18T18:17:29.443Z,45.83
2022-09-18T18:20:12.926Z,42.67
2022-09-18T18:23:01.424Z,43.10
2022-09-18T18:25:43.909Z,44.58
2022-09-18T18:28:33.415Z,44.53
2022-09-18T18:31:20.894Z,36.60
2022-09-18T18:34:18.379Z,46.67
2022-09-18T18:37:07.087Z,45.10
2022-09-18T18:39:50.432Z,43.65
2022-09-18T18:42:39.886Z,45.50
2022-09-18T18:45:22.357Z,43.00
2022-09-18T18:48:07.288Z,50.42
2022-09-18T18:50:58.929Z,43.40
2022-09-18T18:53:49.315Z,35.88
2022-09-18T18:56:38.422Z,38.83
2022-09-18T18:59:30.343Z,37.40
2022-09-18T19:02:12.889Z,42.85
2022-09-18T19:04:55.093Z,43.42
2022-09-18T19:07:44.391Z,38.50
2022-09-18T19:10:27.206Z,39.70
2022-09-18T19:13:17.285Z,37.22
2022-09-18T19:16:01.495Z,42.30
2022-09-18T19:18:50.257Z,42.30
2022-09-18T19:21:33.888Z,41.22
2022-09-18T19:24:23.522Z,42.95
2022-09-18T19:27:05.751Z,45.65
2022-09-18T19:29:57.304Z,38.15
2022-09-18T19:32:48.036Z,36.03
2022-09-18T19:35:44.976Z,40.40
2022-09-18T19:38:33.305Z,29.20
2022-09-18T19:41:56.929Z,39.17
2022-09-18T19:44:54.387Z,37.25
2022-09-18T19:47:49.433Z,34.05
2022-09-18T19:50:35.070Z,32.22
2022-09-18T19:53:24.480Z,35.35
2022-09-18T19:56:27.537Z,30.73
2022-09-18T19:59:21.339Z,33.88
2022-09-18T20:02:12.333Z,29.05
2022-09-18T20:04:55.440Z,31.00
2022-09-18T20:07:41.831Z,28.85
2022-09-18T20:10:25.397Z,29.15
2022-09-18T20:13:08.043Z,34.03
2022-09-18T20:16:11.405Z,30.48
2022-09-18T20:18:55.762Z,36.67
2022-09-18T20:21:44.290Z,25.85
2022-09-18T20:24:27.781Z,24.90
2022-09-18T20:27:16.409Z,31.92
2022-09-18T20:30:05.266Z,31.20
2022-09-18T20:32:47.656Z,31.42
2022-09-18T20:35:36.266Z,27.83
2022-09-18T20:38:32.364Z,26.35
2022-09-18T20:41:23.264Z,34.60
2022-09-18T20:44:14.281Z,30.67
2022-09-18T20:47:02.770Z,28.98
2022-09-18T20:49:47.355Z,30.38
2022-09-18T20:52:36.268Z,28.63
2022-09-18T20:55:28.343Z,31.15
2022-09-18T20:58:10.815Z,32.83
2022-09-18T21:01:01.321Z,33.53
2022-09-18T21:03:52.709Z,32.65
2022-09-18T21:06:40.267Z,29.42
2022-09-18T21:09:23.031Z,29.35
2022-09-18T21:12:12.264Z,26.85
2022-09-18T21:15:03.286Z,38.17
2022-09-18T21:17:46.361Z,30.02
2022-09-18T21:20:35.273Z,34.47
2022-09-18T21:23:44.282Z,31.05
2022-09-18T21:26:34.440Z,26.40
2022-09-18T21:29:27.708Z,30.30
2022-09-18T21:32:16.288Z,31.15
2022-09-18T21:35:04.259Z,27.50
2022-09-18T21:37:53.376Z,27.35
2022-09-18T21:40:48.219Z,32.65
2022-09-18T21:43:50.622Z,27.08
2022-09-18T21:46:32.591Z,36.92
2022-09-18T21:49:23.289Z,30.45
2022-09-18T21:52:08.959Z,25.73
2022-09-18T21:54:57.278Z,28.95
2022-09-18T21:57:39.607Z,36.20
2022-09-18T22:00:28.310Z,36.17
2022-09-18T22:03:10.811Z,32.03
2022-09-18T22:06:00.358Z,28.38
2022-09-18T22:08:42.704Z,36.15
2022-09-18T22:11:36.285Z,27.75
2022-09-18T22:14:34.367Z,36.45
2022-09-18T22:17:17.526Z,30.85
2022-09-18T22:20:06.371Z,31.15
2022-09-18T22:22:48.679Z,25.10
2022-09-18T22:25:30.380Z,27.83
2022-09-18T22:28:12.670Z,28.48
2022-09-18T22:31:02.321Z,31.15
2022-09-18T22:33:46.310Z,32.42
2022-09-18T22:36:36.297Z,33.10
2022-09-18T22:39:19.969Z,33.92
2022-09-18T22:42:08.394Z,29.33
2022-09-18T22:44:57.378Z,32.17
2022-09-18T22:47:39.739Z,35.42
2022-09-18T22:50:30.443Z,35.58
2022-09-18T22:53:13.108Z,32.22
2022-09-18T22:56:08.374Z,32.92
2022-09-18T22:58:58.381Z,40.63
2022-09-18T23:01:47.320Z,39.47
2022-09-18T23:04:38.326Z,31.52
2022-09-18T23:07:20.652Z,33.30
2022-09-18T23:10:09.375Z,32.38
2022-09-18T23:12:58.335Z,35.85
2022-09-18T23:15:50.358Z,40.13
2022-09-18T23:18:39.257Z,35.80
2022-09-18T23:21:22.305Z,36.53
2022-09-18T23:24:13.381Z,38.25
2022-09-18T23:26:58.319Z,42.22
2022-09-18T23:29:48.290Z,36.67
2022-09-18T23:32:30.666Z,37.08
2022-09-18T23:35:19.394Z,37.55
2022-09-18T23:38:03.726Z,32.75
2022-09-18T23:40:52.310Z,34.70
2022-09-18T23:43:48.224Z,41.85
2022-09-18T23:46:38.366Z,36.95
2022-09-18T23:49:24.747Z,54.88
2022-09-18T23:52:13.285Z,37.10
2022-09-18T23:55:02.406Z,39.38
2022-09-18T23:57:44.593Z,40.65
